Hakuna Matata — PH9655 — position and weather

sailwx.info

Track history (hours):
 
Tides and Currents Weather Stations Pressure Air Temp Water Temp Dewpoint Dewpoint Depression Visibility Wind Speed Wind Dir Waves Ship Positions

Hakuna Matata

Last reported at 2018-Aug-19 11:09 UTC. Time now 2018-Aug-19 15:20 UTC.
Position N 37°45' W 000°45'.

Length 25 m; draft 0.9 m.

Type: Ship. MMSI: 244660369.

Date/timePositionNaut miles runAvg speedWind from/ knotsBaromVisibWave heightAir tempDewpointWater temp
2018-Aug-19 11:09N 37°45' W 000°45'0 0.0
2018-Aug-19 10:57N 37°45' W 000°45'0 0.0
2018-Aug-19 10:27N 37°45' W 000°45'0 0.0
2018-Aug-19 09:57N 37°45' W 000°45'0 0.0
2018-Aug-19 09:27N 37°45' W 000°45'0 0.0
2018-Aug-19 08:57N 37°45' W 000°45'0 0.0
2018-Aug-19 07:57N 37°45' W 000°45'0 0.0
2018-Aug-19 07:27N 37°45' W 000°45'0 0.0
2018-Aug-19 06:57N 37°45' W 000°45'0 0.0
2018-Aug-19 06:27N 37°45' W 000°45'0 0.0
2018-Aug-19 05:57N 37°45' W 000°45'0 0.0
2018-Aug-19 05:27N 37°45' W 000°45'0 0.0
2018-Aug-19 04:57N 37°45' W 000°45'0 0.0
2018-Aug-19 04:27N 37°45' W 000°45'0 0.0
2018-Aug-19 03:57N 37°45' W 000°45'0 0.0
2018-Aug-19 03:27N 37°45' W 000°45'0 0.0
2018-Aug-19 02:57N 37°45' W 000°45'0 0.0
2018-Aug-19 02:27N 37°45' W 000°45'0 0.0
2018-Aug-19 01:57N 37°45' W 000°45'0 0.0
2018-Aug-19 01:27N 37°45' W 000°45'0 0.0
2018-Aug-19 00:57N 37°45' W 000°45'0 0.0
2018-Aug-19 00:27N 37°45' W 000°45'0 0.0
2018-Aug-18 23:57N 37°45' W 000°45'0 0.0
2018-Aug-18 23:27N 37°45' W 000°45'0 0.0
2018-Aug-18 22:57N 37°45' W 000°45'0 0.0
2018-Aug-18 21:33N 37°45' W 000°45'0 0.1
2018-Aug-18 21:27N 37°45' W 000°45'0 0.0
2018-Aug-18 20:57N 37°45' W 000°45'0 0.0
2018-Aug-18 20:27N 37°45' W 000°45'0 0.0
2018-Aug-18 19:57N 37°45' W 000°45'0 0.0
2018-Aug-18 19:27N 37°45' W 000°45'0 0.0
2018-Aug-18 18:57N 37°45' W 000°45'0 0.0
2018-Aug-18 18:27N 37°45' W 000°45'0 0.0
2018-Aug-18 17:57N 37°45' W 000°45'0 0.0
2018-Aug-18 17:27N 37°45' W 000°45'0 0.0
2018-Aug-18 16:57N 37°45' W 000°45'  
2018-Aug-16 11:20N 37°45' W 000°45'0 0.0
2018-Aug-16 11:00N 37°45' W 000°45'5 3.9
2018-Aug-16 09:50N 37°41' W 000°46'1 2.4
2018-Aug-16 09:29N 37°41' W 000°47'2 3.8
2018-Aug-16 08:58N 37°43' W 000°46'2 3.6
2018-Aug-16 08:30N 37°45' W 000°46'  
2018-Aug-13 11:43N 37°45' W 000°45'0 0.0
2018-Aug-13 11:25N 37°45' W 000°45'0 0.0
2018-Aug-13 10:55N 37°45' W 000°45'2 3.6
2018-Aug-13 10:30N 37°45' W 000°47'2 3.0
2018-Aug-13 09:59N 37°45' W 000°48'1 2.9
2018-Aug-13 09:30N 37°46' W 000°47'1 2.3
2018-Aug-13 08:52N 37°46' W 000°46'0 1.2
2018-Aug-13 08:28N 37°46' W 000°45'1 2.3
2018-Aug-13 08:00N 37°45' W 000°45'0 0.0
2018-Aug-12 11:40N 37°45' W 000°45'0 0.0
2018-Aug-12 11:28N 37°45' W 000°45'0 0.0
2018-Aug-12 10:10N 37°45' W 000°45'0 0.0
2018-Aug-12 09:58N 37°45' W 000°45'0 0.0
2018-Aug-11 18:33N 37°45' W 000°45'0 0.1
2018-Aug-11 18:27N 37°45' W 000°45'0 0.0
2018-Aug-11 17:57N 37°45' W 000°45'0 0.0
2018-Aug-11 17:27N 37°45' W 000°45'0 0.0
2018-Aug-11 16:45N 37°45' W 000°45'0 0.0
2018-Aug-10 18:37N 37°45' W 000°45'0 0.0
2018-Aug-10 17:37N 37°45' W 000°45'0 0.0
2018-Aug-10 17:19N 37°45' W 000°45'0 0.0
2018-Aug-10 15:55N 37°45' W 000°45'0 0.0
2018-Aug-10 15:19N 37°45' W 000°45'0 0.0
2018-Aug-10 14:55N 37°45' W 000°45'0 0.0
2018-Aug-10 13:49N 37°45' W 000°45'0 0.0
2018-Aug-10 13:26N 37°45' W 000°45'0 0.0
2018-Aug-10 12:55N 37°45' W 000°45'0 0.0
2018-Aug-10 12:25N 37°45' W 000°45'0 0.0
2018-Aug-10 11:55N 37°45' W 000°45'0 0.0
2018-Aug-10 11:25N 37°45' W 000°45'0 0.0
2018-Aug-10 10:55N 37°45' W 000°45'0 0.0
2018-Aug-10 10:25N 37°45' W 000°45'0 0.0
2018-Aug-09 11:32N 37°45' W 000°45'0 2.3
2018-Aug-09 11:25N 37°45' W 000°45'  
Track history (hours):
 
Tides and Currents Weather Stations Pressure Air Temp Water Temp Dewpoint Dewpoint Depression Visibility Wind Speed Wind Dir Waves Ship Positions

Hakuna Matata

Last reported at 2018-Aug-19 11:09 UTC. Time now 2018-Aug-19 15:20 UTC.
Position N 37°45' W 000°45'.

Length 25 m; draft 0.9 m.

Type: Ship. MMSI: 244660369.

Date/timePositionNaut miles runAvg speedWind from/ knotsBaromVisibWave heightAir tempDewpointWater temp
2018-Aug-19 11:09N 37°45' W 000°45'0 0.0
2018-Aug-19 10:57N 37°45' W 000°45'0 0.0
2018-Aug-19 10:27N 37°45' W 000°45'0 0.0
2018-Aug-19 09:57N 37°45' W 000°45'0 0.0
2018-Aug-19 09:27N 37°45' W 000°45'0 0.0
2018-Aug-19 08:57N 37°45' W 000°45'0 0.0
2018-Aug-19 07:57N 37°45' W 000°45'0 0.0
2018-Aug-19 07:27N 37°45' W 000°45'0 0.0
2018-Aug-19 06:57N 37°45' W 000°45'0 0.0
2018-Aug-19 06:27N 37°45' W 000°45'0 0.0
2018-Aug-19 05:57N 37°45' W 000°45'0 0.0
2018-Aug-19 05:27N 37°45' W 000°45'0 0.0
2018-Aug-19 04:57N 37°45' W 000°45'0 0.0
2018-Aug-19 04:27N 37°45' W 000°45'0 0.0
2018-Aug-19 03:57N 37°45' W 000°45'0 0.0
2018-Aug-19 03:27N 37°45' W 000°45'0 0.0
2018-Aug-19 02:57N 37°45' W 000°45'0 0.0
2018-Aug-19 02:27N 37°45' W 000°45'0 0.0
2018-Aug-19 01:57N 37°45' W 000°45'0 0.0
2018-Aug-19 01:27N 37°45' W 000°45'0 0.0
2018-Aug-19 00:57N 37°45' W 000°45'0 0.0
2018-Aug-19 00:27N 37°45' W 000°45'0 0.0
2018-Aug-18 23:57N 37°45' W 000°45'0 0.0
2018-Aug-18 23:27N 37°45' W 000°45'0 0.0
2018-Aug-18 22:57N 37°45' W 000°45'0 0.0
2018-Aug-18 21:33N 37°45' W 000°45'0 0.1
2018-Aug-18 21:27N 37°45' W 000°45'0 0.0
2018-Aug-18 20:57N 37°45' W 000°45'0 0.0
2018-Aug-18 20:27N 37°45' W 000°45'0 0.0
2018-Aug-18 19:57N 37°45' W 000°45'0 0.0
2018-Aug-18 19:27N 37°45' W 000°45'0 0.0
2018-Aug-18 18:57N 37°45' W 000°45'0 0.0
2018-Aug-18 18:27N 37°45' W 000°45'0 0.0
2018-Aug-18 17:57N 37°45' W 000°45'0 0.0
2018-Aug-18 17:27N 37°45' W 000°45'0 0.0
2018-Aug-18 16:57N 37°45' W 000°45'  
2018-Aug-16 11:20N 37°45' W 000°45'0 0.0
2018-Aug-16 11:00N 37°45' W 000°45'5 3.9
2018-Aug-16 09:50N 37°41' W 000°46'1 2.4
2018-Aug-16 09:29N 37°41' W 000°47'2 3.8
2018-Aug-16 08:58N 37°43' W 000°46'2 3.6
2018-Aug-16 08:30N 37°45' W 000°46'  
2018-Aug-13 11:43N 37°45' W 000°45'0 0.0
2018-Aug-13 11:25N 37°45' W 000°45'0 0.0
2018-Aug-13 10:55N 37°45' W 000°45'2 3.6
2018-Aug-13 10:30N 37°45' W 000°47'2 3.0
2018-Aug-13 09:59N 37°45' W 000°48'1 2.9
2018-Aug-13 09:30N 37°46' W 000°47'1 2.3
2018-Aug-13 08:52N 37°46' W 000°46'0 1.2
2018-Aug-13 08:28N 37°46' W 000°45'1 2.3
2018-Aug-13 08:00N 37°45' W 000°45'0 0.0
2018-Aug-12 11:40N 37°45' W 000°45'0 0.0
2018-Aug-12 11:28N 37°45' W 000°45'0 0.0
2018-Aug-12 10:10N 37°45' W 000°45'0 0.0
2018-Aug-12 09:58N 37°45' W 000°45'0 0.0
2018-Aug-11 18:33N 37°45' W 000°45'0 0.1
2018-Aug-11 18:27N 37°45' W 000°45'0 0.0
2018-Aug-11 17:57N 37°45' W 000°45'0 0.0
2018-Aug-11 17:27N 37°45' W 000°45'0 0.0
2018-Aug-11 16:45N 37°45' W 000°45'0 0.0
2018-Aug-10 18:37N 37°45' W 000°45'0 0.0
2018-Aug-10 17:37N 37°45' W 000°45'0 0.0
2018-Aug-10 17:19N 37°45' W 000°45'0 0.0
2018-Aug-10 15:55N 37°45' W 000°45'0 0.0
2018-Aug-10 15:19N 37°45' W 000°45'0 0.0
2018-Aug-10 14:55N 37°45' W 000°45'0 0.0
2018-Aug-10 13:49N 37°45' W 000°45'0 0.0
2018-Aug-10 13:26N 37°45' W 000°45'0 0.0
2018-Aug-10 12:55N 37°45' W 000°45'0 0.0
2018-Aug-10 12:25N 37°45' W 000°45'0 0.0
2018-Aug-10 11:55N 37°45' W 000°45'0 0.0
2018-Aug-10 11:25N 37°45' W 000°45'0 0.0
2018-Aug-10 10:55N 37°45' W 000°45'0 0.0
2018-Aug-10 10:25N 37°45' W 000°45'0 0.0
2018-Aug-09 11:32N 37°45' W 000°45'0 2.3
2018-Aug-09 11:25N 37°45' W 000°45'  

Dump ship's entire track history